Time;durP1;ratioP1;P1;durP2;ratioP2;P2;SDS_P1;SDS_P2;PMS_P1;PMS_P2;Temp;Humidity;BMP_temperature;BMP_pressure;BME280_temperature;BME280_humidity;BME280_pressure;Samples;Min_cycle;Max_cycle;Signal;HPM_P1;HPM_P2
2023/01/14 00:00:17;;;;;;;7.23;3.23;;;;;;;;;;6152205;23;20169;-90
2023/01/14 00:03:22;;;;;;;6.83;3.13;;;;;;;;;;6152040;23;20169;-89
2023/01/14 00:06:29;;;;;;;6.73;1.80;;;;;;;;;;6150990;23;20237;-90
2023/01/14 00:09:34;;;;;;;2.92;1.45;;;;;;;;;;6151572;23;20176;-89
2023/01/14 00:12:39;;;;;;;3.83;1.73;;;;;;;;;;6152115;23;20535;-89
2023/01/14 00:15:52;;;;;;;8.50;2.30;;;;;;;;;;6152789;23;20172;-91
2023/01/14 00:18:57;;;;;;;4.03;1.80;;;;;;;;;;6152504;23;20207;-90
2023/01/14 00:22:03;;;;;;;7.10;2.43;;;;;;;;;;6152214;23;20172;-89
2023/01/14 00:25:10;;;;;;;4.00;1.40;;;;;;;;;;6152941;23;20168;-89
2023/01/14 00:28:15;;;;;;;2.10;1.00;;;;;;;;;;6150385;23;20175;-89
2023/01/14 00:31:21;;;;;;;3.63;1.37;;;;;;;;;;6148429;23;20203;-88
2023/01/14 00:34:27;;;;;;;5.30;0.90;;;;;;;;;;6151365;23;20180;-90
2023/01/14 00:37:34;;;;;;;6.20;1.50;;;;;;;;;;6149013;23;20285;-89
2023/01/14 00:40:39;;;;;;;5.90;1.73;;;;;;;;;;6150466;23;20164;-89
2023/01/14 00:43:45;;;;;;;4.57;1.43;;;;;;;;;;6150316;23;20313;-89
2023/01/14 00:46:51;;;;;;;4.17;1.37;;;;;;;;;;6149738;23;20496;-88
2023/01/14 00:49:56;;;;;;;6.67;1.70;;;;;;;;;;6170744;23;20156;-90
2023/01/14 00:53:02;;;;;;;4.23;1.27;;;;;;;;;;6151666;23;20173;-88
2023/01/14 00:56:08;;;;;;;5.47;1.90;;;;;;;;;;6150367;23;20591;-88
2023/01/14 00:59:18;;;;;;;3.63;1.47;;;;;;;;;;6151841;23;20191;-89
2023/01/14 01:02:22;;;;;;;5.60;1.00;;;;;;;;;;6150736;23;20176;-87
2023/01/14 01:05:27;;;;;;;5.77;1.20;;;;;;;;;;6150739;23;20168;-90
2023/01/14 01:08:34;;;;;;;6.55;1.17;;;;;;;;;;6150476;23;20248;-89
2023/01/14 01:11:39;;;;;;;7.00;0.90;;;;;;;;;;6151179;23;20155;-87
2023/01/14 01:14:47;;;;;;;6.87;1.83;;;;;;;;;;6151677;23;20176;-90
2023/01/14 01:17:52;;;;;;;3.27;1.13;;;;;;;;;;6149880;23;20618;-89
2023/01/14 01:21:02;;;;;;;3.50;0.80;;;;;;;;;;6150920;23;20160;-88
2023/01/14 01:24:09;;;;;;;11.67;2.57;;;;;;;;;;6150369;23;20208;-87
2023/01/14 01:27:18;;;;;;;5.97;1.73;;;;;;;;;;6150649;23;20172;-89
2023/01/14 01:30:23;;;;;;;5.07;1.10;;;;;;;;;;6151255;23;20228;-89
2023/01/14 01:33:28;;;;;;;7.23;1.30;;;;;;;;;;6151442;23;20168;-88
2023/01/14 01:36:33;;;;;;;8.18;1.58;;;;;;;;;;6152148;23;20167;-91
2023/01/14 01:40:11;;;;;;;3.13;1.13;;;;;;;;;;6150620;23;20195;-88
2023/01/14 01:43:18;;;;;;;6.90;1.00;;;;;;;;;;6151921;23;20156;-89
2023/01/14 01:46:24;;;;;;;5.93;1.33;;;;;;;;;;6150625;23;20187;-87
2023/01/14 01:49:30;;;;;;;1.87;0.70;;;;;;;;;;6152457;23;20225;-89
2023/01/14 01:52:35;;;;;;;3.47;1.20;;;;;;;;;;6150912;23;20288;-90
2023/01/14 01:55:41;;;;;;;4.23;1.10;;;;;;;;;;6150336;23;20169;-89
2023/01/14 01:58:48;;;;;;;7.40;1.00;;;;;;;;;;6149773;23;20192;-89
2023/01/14 02:01:54;;;;;;;5.17;1.17;;;;;;;;;;6151482;23;20499;-89
2023/01/14 02:05:03;;;;;;;4.63;1.57;;;;;;;;;;6149850;23;20172;-86
2023/01/14 02:08:12;;;;;;;6.33;1.30;;;;;;;;;;6149642;23;20172;-89
2023/01/14 02:11:22;;;;;;;8.02;1.35;;;;;;;;;;6149676;23;20168;-88
2023/01/14 02:14:35;;;;;;;4.75;1.10;;;;;;;;;;6150554;23;20175;-89
2023/01/14 02:17:47;;;;;;;8.23;2.03;;;;;;;;;;6149029;23;20168;-88
2023/01/14 02:20:57;;;;;;;4.25;1.50;;;;;;;;;;6150089;23;20172;-88
2023/01/14 02:24:21;;;;;;;6.18;1.00;;;;;;;;;;6149576;23;20164;-87
2023/01/14 02:27:37;;;;;;;4.30;1.20;;;;;;;;;;6148904;23;20169;-88
2023/01/14 02:30:50;;;;;;;11.73;2.20;;;;;;;;;;6151487;23;20191;-88
2023/01/14 02:34:00;;;;;;;4.13;1.00;;;;;;;;;;6148989;23;20169;-89
2023/01/14 02:37:10;;;;;;;6.45;1.98;;;;;;;;;;6147937;23;20169;-89
2023/01/14 02:40:21;;;;;;;3.97;0.80;;;;;;;;;;6147218;23;20291;-87
2023/01/14 02:46:59;;;;;;;6.30;0.80;;;;;;;;;;6148420;23;20177;-89
2023/01/14 02:50:05;;;;;;;4.63;1.20;;;;;;;;;;6148765;23;20224;-89
2023/01/14 02:53:11;;;;;;;5.40;1.10;;;;;;;;;;6147232;23;20172;-90
2023/01/14 02:56:16;;;;;;;5.35;0.90;;;;;;;;;;6148190;23;20292;-88
2023/01/14 02:59:31;;;;;;;2.45;0.80;;;;;;;;;;6147925;23;20187;-90
2023/01/14 03:02:54;;;;;;;6.43;0.93;;;;;;;;;;6149973;23;20227;-91
2023/01/14 03:06:11;;;;;;;2.75;0.80;;;;;;;;;;6147996;23;20180;-90
2023/01/14 03:09:21;;;;;;;2.50;0.70;;;;;;;;;;6151861;23;20168;-91
2023/01/14 03:12:31;;;;;;;3.33;0.70;;;;;;;;;;6150678;23;20168;-88
2023/01/14 03:15:41;;;;;;;5.33;0.90;;;;;;;;;;6152236;23;20156;-88
2023/01/14 03:18:49;;;;;;;4.40;0.95;;;;;;;;;;6151818;23;20180;-89
2023/01/14 03:21:56;;;;;;;4.53;1.00;;;;;;;;;;6151851;23;20196;-88
2023/01/14 03:25:02;;;;;;;6.77;1.20;;;;;;;;;;6152159;23;20212;-87
2023/01/14 03:28:10;;;;;;;5.87;1.10;;;;;;;;;;6150556;23;20172;-87
2023/01/14 03:31:18;;;;;;;3.80;1.00;;;;;;;;;;6149952;23;20179;-89
2023/01/14 03:34:27;;;;;;;4.35;1.20;;;;;;;;;;6150506;23;20232;-88
2023/01/14 03:37:43;;;;;;;3.33;1.37;;;;;;;;;;6149863;23;20188;-88
2023/01/14 03:40:50;;;;;;;6.77;1.57;;;;;;;;;;6151200;23;20176;-88
2023/01/14 03:43:56;;;;;;;4.93;0.95;;;;;;;;;;6150726;23;20245;-87
2023/01/14 03:47:01;;;;;;;4.23;1.10;;;;;;;;;;6150573;23;20171;-91
2023/01/14 03:50:07;;;;;;;3.00;1.20;;;;;;;;;;6152523;23;20176;-90
2023/01/14 03:53:17;;;;;;;1.80;0.83;;;;;;;;;;6153819;23;20184;-90
2023/01/14 03:56:24;;;;;;;3.83;1.03;;;;;;;;;;6151554;23;20491;-90
2023/01/14 03:59:32;;;;;;;3.10;1.00;;;;;;;;;;6151429;23;20271;-89
2023/01/14 04:02:38;;;;;;;2.80;0.87;;;;;;;;;;6152539;23;20168;-88
2023/01/14 04:05:43;;;;;;;1.77;0.70;;;;;;;;;;6151695;23;20473;-91
2023/01/14 04:08:50;;;;;;;4.00;1.13;;;;;;;;;;6152173;23;20177;-90
2023/01/14 04:11:55;;;;;;;3.53;1.63;;;;;;;;;;6150944;23;20168;-91
2023/01/14 04:18:23;;;;;;;2.40;0.90;;;;;;;;;;6151243;23;20169;-89
2023/01/14 04:21:28;;;;;;;5.40;0.90;;;;;;;;;;6149379;23;20171;-89
2023/01/14 04:24:35;;;;;;;3.83;0.90;;;;;;;;;;6153397;23;20156;-89
2023/01/14 04:27:40;;;;;;;1.50;0.70;;;;;;;;;;6151640;23;20224;-89
2023/01/14 04:30:45;;;;;;;2.10;0.80;;;;;;;;;;6151665;23;20209;-89
2023/01/14 04:33:50;;;;;;;5.67;0.93;;;;;;;;;;6152974;23;20485;-88
2023/01/14 04:36:55;;;;;;;8.27;1.03;;;;;;;;;;6152091;23;20284;-88
2023/01/14 04:40:02;;;;;;;2.33;1.00;;;;;;;;;;6150022;23;20192;-88
2023/01/14 04:43:08;;;;;;;3.93;1.10;;;;;;;;;;6151147;23;20169;-90
2023/01/14 04:46:13;;;;;;;5.30;1.37;;;;;;;;;;6149359;23;20164;-90
2023/01/14 04:49:18;;;;;;;4.83;0.90;;;;;;;;;;6147823;23;20271;-91
2023/01/14 04:52:24;;;;;;;2.03;0.80;;;;;;;;;;6148519;23;20241;-89
2023/01/14 04:55:30;;;;;;;5.77;1.10;;;;;;;;;;6148567;23;20184;-89
2023/01/14 04:58:35;;;;;;;6.20;1.20;;;;;;;;;;6147615;23;20280;-90
2023/01/14 05:01:40;;;;;;;3.57;0.90;;;;;;;;;;6147134;23;20323;-90
2023/01/14 05:04:45;;;;;;;4.63;1.10;;;;;;;;;;6148435;23;20171;-88
2023/01/14 05:07:51;;;;;;;3.53;1.00;;;;;;;;;;6149068;23;20201;-89
2023/01/14 05:10:57;;;;;;;3.70;1.00;;;;;;;;;;6148140;23;20246;-88
2023/01/14 05:14:03;;;;;;;4.70;1.10;;;;;;;;;;6151168;23;20173;-90
2023/01/14 05:17:07;;;;;;;4.13;0.98;;;;;;;;;;6150556;23;20244;-89
2023/01/14 05:20:13;;;;;;;3.93;0.90;;;;;;;;;;6149960;23;20196;-86
2023/01/14 05:23:19;;;;;;;7.50;0.90;;;;;;;;;;6151539;23;20168;-89
2023/01/14 05:26:25;;;;;;;2.93;1.10;;;;;;;;;;6149729;23;20598;-87
2023/01/14 05:29:31;;;;;;;2.93;0.80;;;;;;;;;;6149456;23;20168;-89
2023/01/14 05:32:36;;;;;;;5.77;1.03;;;;;;;;;;6150146;23;20172;-88
2023/01/14 05:35:41;;;;;;;4.90;0.90;;;;;;;;;;6148597;23;20168;-88
2023/01/14 05:39:13;;;;;;;3.43;1.10;;;;;;;;;;6148318;23;20213;-87
2023/01/14 05:45:48;;;;;;;5.40;1.20;;;;;;;;;;6149230;23;20173;-88
2023/01/14 05:48:53;;;;;;;3.27;1.20;;;;;;;;;;6146800;23;20160;-89
2023/01/14 05:51:58;;;;;;;7.47;1.10;;;;;;;;;;6148470;23;20168;-89
2023/01/14 05:55:03;;;;;;;12.97;1.47;;;;;;;;;;6147436;23;20161;-89
2023/01/14 05:58:10;;;;;;;3.97;0.97;;;;;;;;;;6148995;23;20200;-89
2023/01/14 06:08:03;;;;;;;4.07;1.00;;;;;;;;;;6147213;23;20188;-89
2023/01/14 06:11:09;;;;;;;2.23;0.90;;;;;;;;;;6149666;23;20156;-89
2023/01/14 06:14:17;;;;;;;5.60;1.10;;;;;;;;;;6150322;23;20173;-91
2023/01/14 06:17:27;;;;;;;3.17;1.10;;;;;;;;;;6148205;23;20167;-90
2023/01/14 06:20:33;;;;;;;8.17;1.30;;;;;;;;;;6149717;23;20183;-90
2023/01/14 06:23:38;;;;;;;5.80;1.10;;;;;;;;;;6148914;23;20619;-89
2023/01/14 06:26:43;;;;;;;4.70;1.30;;;;;;;;;;6147930;23;20152;-88
2023/01/14 06:29:52;;;;;;;3.13;1.03;;;;;;;;;;6149470;23;20179;-89
2023/01/14 06:32:58;;;;;;;5.80;1.27;;;;;;;;;;6148649;23;20173;-89
2023/01/14 06:36:03;;;;;;;5.30;1.40;;;;;;;;;;6149424;23;20193;-89
2023/01/14 06:39:37;;;;;;;5.23;1.33;;;;;;;;;;6149541;23;20160;-88
2023/01/14 06:42:42;;;;;;;5.77;1.37;;;;;;;;;;6149212;23;20218;-88
2023/01/14 06:45:54;;;;;;;2.20;1.00;;;;;;;;;;6151383;23;20184;-89
2023/01/14 06:48:59;;;;;;;6.00;1.33;;;;;;;;;;6169890;23;20216;-88
2023/01/14 06:52:04;;;;;;;6.17;1.40;;;;;;;;;;6152107;23;20173;-89
2023/01/14 06:55:10;;;;;;;6.27;1.20;;;;;;;;;;6150589;23;20164;-89
2023/01/14 06:58:15;;;;;;;6.87;1.47;;;;;;;;;;6150938;23;20177;-88
2023/01/14 07:01:22;;;;;;;7.87;1.40;;;;;;;;;;6152392;23;20240;-88
2023/01/14 07:04:28;;;;;;;5.40;1.40;;;;;;;;;;6151956;23;20164;-89
2023/01/14 07:07:32;;;;;;;89.37;22.07;;;;;;;;;;6151787;23;20184;-88
2023/01/14 07:10:37;;;;;;;15.47;4.67;;;;;;;;;;6150450;23;20172;-89
2023/01/14 07:13:42;;;;;;;7.87;2.10;;;;;;;;;;6151562;23;20296;-89
2023/01/14 07:16:49;;;;;;;9.00;2.10;;;;;;;;;;6151512;23;20239;-89
2023/01/14 07:19:54;;;;;;;4.93;1.60;;;;;;;;;;6169032;23;20197;-89
2023/01/14 07:23:03;;;;;;;3.60;1.47;;;;;;;;;;6151325;23;20236;-90
2023/01/14 07:26:08;;;;;;;6.13;1.50;;;;;;;;;;6150691;23;20160;-89
2023/01/14 07:29:14;;;;;;;6.47;1.60;;;;;;;;;;6150811;23;20197;-89
2023/01/14 07:32:21;;;;;;;6.43;1.87;;;;;;;;;;6151908;23;20167;-90
2023/01/14 07:35:26;;;;;;;6.90;2.00;;;;;;;;;;6151022;23;20222;-88
2023/01/14 07:38:31;;;;;;;6.27;2.10;;;;;;;;;;6150231;23;20239;-89
2023/01/14 07:41:37;;;;;;;7.07;2.40;;;;;;;;;;6149358;23;20288;-88
2023/01/14 07:44:43;;;;;;;10.27;2.57;;;;;;;;;;6150099;23;20161;-89
2023/01/14 07:47:50;;;;;;;7.97;2.20;;;;;;;;;;6150729;23;20225;-89
2023/01/14 07:50:55;;;;;;;6.83;2.53;;;;;;;;;;6150530;23;20173;-88
2023/01/14 07:54:01;;;;;;;25.87;8.43;;;;;;;;;;6150981;23;20616;-90
2023/01/14 07:57:07;;;;;;;5.43;2.47;;;;;;;;;;6149898;23;20184;-88
2023/01/14 08:00:13;;;;;;;4.60;2.00;;;;;;;;;;6149128;23;20200;-88
2023/01/14 08:03:20;;;;;;;10.67;2.30;;;;;;;;;;6148444;23;20208;-87
2023/01/14 08:06:25;;;;;;;9.27;3.17;;;;;;;;;;6153942;23;20168;-90
2023/01/14 08:09:30;;;;;;;11.17;4.07;;;;;;;;;;6155010;23;20218;-92
2023/01/14 08:12:37;;;;;;;10.30;3.93;;;;;;;;;;6153908;23;20168;-90
2023/01/14 08:15:42;;;;;;;10.67;3.90;;;;;;;;;;6153391;23;20192;-89
2023/01/14 08:18:50;;;;;;;9.80;3.37;;;;;;;;;;6154291;23;20168;-89
2023/01/14 08:21:57;;;;;;;10.20;4.47;;;;;;;;;;6156019;23;20168;-92
2023/01/14 08:25:02;;;;;;;55.67;15.53;;;;;;;;;;6155223;23;20173;-90
2023/01/14 08:28:07;;;;;;;36.73;14.87;;;;;;;;;;6154800;23;20168;-91
2023/01/14 08:31:14;;;;;;;16.33;4.17;;;;;;;;;;6153998;23;20196;-89
2023/01/14 08:34:20;;;;;;;19.13;9.90;;;;;;;;;;6173252;23;20173;-90
2023/01/14 08:37:41;;;;;;;9.40;2.97;;;;;;;;;;6154660;23;20172;-91
2023/01/14 08:40:48;;;;;;;9.27;3.03;;;;;;;;;;6153524;23;20193;-91
2023/01/14 08:43:53;;;;;;;10.37;3.90;;;;;;;;;;6154737;23;20180;-90
2023/01/14 08:46:58;;;;;;;15.30;4.27;;;;;;;;;;6153472;23;20176;-88
2023/01/14 08:50:06;;;;;;;15.80;5.47;;;;;;;;;;6154889;23;20261;-89
2023/01/14 08:53:12;;;;;;;15.30;7.70;;;;;;;;;;6153235;23;20164;-90
2023/01/14 08:56:17;;;;;;;30.03;10.53;;;;;;;;;;6154268;23;20168;-90
2023/01/14 08:59:23;;;;;;;25.33;8.50;;;;;;;;;;6153115;23;20172;-90
2023/01/14 09:02:31;;;;;;;27.97;11.90;;;;;;;;;;6150915;23;20164;-90
2023/01/14 09:05:38;;;;;;;15.67;6.13;;;;;;;;;;6152715;23;20176;-91
2023/01/14 09:18:56;;;;;;;10.90;3.90;;;;;;;;;;6155246;23;20189;-89
2023/01/14 09:22:04;;;;;;;8.60;3.37;;;;;;;;;;6157048;23;20172;-92
2023/01/14 09:25:11;;;;;;;9.50;3.03;;;;;;;;;;6153497;23;20164;-86
2023/01/14 09:28:16;;;;;;;13.47;3.13;;;;;;;;;;6148448;23;20181;-89
2023/01/14 09:31:21;;;;;;;19.30;3.50;;;;;;;;;;6150289;23;20200;-86
2023/01/14 09:34:27;;;;;;;10.37;3.20;;;;;;;;;;6150814;23;20168;-88
2023/01/14 09:37:58;;;;;;;9.73;3.07;;;;;;;;;;6150141;23;20215;-88
2023/01/14 09:41:07;;;;;;;9.63;3.97;;;;;;;;;;6149246;23;20196;-88
2023/01/14 09:44:13;;;;;;;16.33;5.57;;;;;;;;;;6150927;23;20171;-88
2023/01/14 09:47:19;;;;;;;7.57;3.20;;;;;;;;;;6151543;23;20498;-90
2023/01/14 09:50:27;;;;;;;11.90;4.47;;;;;;;;;;6151289;23;20266;-87
2023/01/14 09:53:43;;;;;;;10.90;3.90;;;;;;;;;;6151925;23;20184;-89
2023/01/14 09:56:53;;;;;;;9.83;3.30;;;;;;;;;;6151410;23;20305;-88
2023/01/14 10:00:00;;;;;;;11.57;2.50;;;;;;;;;;6150597;23;20149;-87
2023/01/14 10:03:16;;;;;;;7.90;2.77;;;;;;;;;;6153130;23;20167;-88
2023/01/14 10:06:22;;;;;;;13.87;2.80;;;;;;;;;;6154428;23;20159;-88
2023/01/14 10:09:30;;;;;;;5.88;2.63;;;;;;;;;;6154234;23;20167;-89
2023/01/14 10:12:38;;;;;;;7.90;2.30;;;;;;;;;;6152809;23;20177;-90
2023/01/14 10:15:49;;;;;;;7.30;2.75;;;;;;;;;;6154114;23;20165;-88
2023/01/14 10:18:58;;;;;;;5.00;1.88;;;;;;;;;;6153257;23;20222;-87
2023/01/14 10:22:07;;;;;;;8.65;2.50;;;;;;;;;;6154649;23;20316;-87
2023/01/14 10:25:15;;;;;;;7.30;1.80;;;;;;;;;;6153466;23;20217;-88
2023/01/14 10:28:24;;;;;;;10.52;2.95;;;;;;;;;;6154500;23;20156;-87
2023/01/14 10:31:30;;;;;;;11.13;2.10;;;;;;;;;;6157411;23;20195;-90
2023/01/14 10:34:40;;;;;;;14.48;2.20;;;;;;;;;;6155718;23;20175;-87
2023/01/14 10:37:45;;;;;;;9.55;1.95;;;;;;;;;;6155993;23;20209;-87
2023/01/14 10:40:52;;;;;;;10.95;1.90;;;;;;;;;;6155041;23;20188;-90
2023/01/14 10:43:59;;;;;;;9.25;1.80;;;;;;;;;;6158482;23;20189;-87
2023/01/14 10:47:05;;;;;;;4.32;1.50;;;;;;;;;;6174816;23;20181;-88
2023/01/14 10:50:25;;;;;;;18.98;2.75;;;;;;;;;;6155722;23;20176;-88
2023/01/14 10:53:30;;;;;;;9.30;2.00;;;;;;;;;;6154177;23;20172;-89
2023/01/14 10:56:36;;;;;;;7.28;1.65;;;;;;;;;;6154797;23;20165;-86
2023/01/14 10:59:44;;;;;;;6.03;1.63;;;;;;;;;;6157195;23;20160;-90
2023/01/14 11:02:50;;;;;;;7.53;1.45;;;;;;;;;;6154063;23;20224;-88
2023/01/14 11:05:58;;;;;;;7.35;1.73;;;;;;;;;;6157290;23;20193;-90
2023/01/14 11:09:04;;;;;;;10.30;2.25;;;;;;;;;;6152265;23;20176;-86
2023/01/14 11:12:18;;;;;;;5.93;1.42;;;;;;;;;;6152157;23;20168;-88
2023/01/14 11:15:35;;;;;;;7.53;1.80;;;;;;;;;;6153094;23;20152;-90
2023/01/14 11:18:50;;;;;;;12.77;2.42;;;;;;;;;;6153376;23;20165;-89
2023/01/14 11:21:55;;;;;;;7.65;2.03;;;;;;;;;;6151971;23;20821;-87
2023/01/14 11:25:00;;;;;;;9.80;1.98;;;;;;;;;;6155086;23;20161;-90
2023/01/14 11:28:07;;;;;;;11.65;1.63;;;;;;;;;;6153035;23;20172;-89
2023/01/14 11:31:14;;;;;;;16.08;5.15;;;;;;;;;;6154791;23;20205;-88
2023/01/14 11:34:25;;;;;;;14.65;2.60;;;;;;;;;;6154503;23;20164;-90
2023/01/14 11:37:33;;;;;;;23.77;2.80;;;;;;;;;;6154945;23;20253;-88
2023/01/14 11:44:04;;;;;;;8.85;1.50;;;;;;;;;;6154514;23;20161;-88
2023/01/14 11:47:15;;;;;;;36.83;3.17;;;;;;;;;;6152291;23;20184;-88
2023/01/14 11:50:21;;;;;;;12.10;1.98;;;;;;;;;;6153466;23;20169;-88
2023/01/14 11:53:27;;;;;;;12.88;4.40;;;;;;;;;;6153253;23;20157;-92
2023/01/14 11:56:34;;;;;;;24.75;3.80;;;;;;;;;;6153100;23;20164;-87
2023/01/14 11:59:40;;;;;;;12.98;2.67;;;;;;;;;;6153834;23;20152;-90
2023/01/14 12:02:48;;;;;;;13.75;1.88;;;;;;;;;;6153604;23;20168;-87
2023/01/14 12:05:54;;;;;;;15.05;3.83;;;;;;;;;;6152451;23;20189;-89
2023/01/14 12:09:02;;;;;;;10.77;1.77;;;;;;;;;;6150650;23;20164;-88
2023/01/14 12:12:10;;;;;;;9.93;1.75;;;;;;;;;;6150017;23;20687;-88
2023/01/14 12:18:47;;;;;;;9.18;1.55;;;;;;;;;;6149785;23;20249;-88
2023/01/14 12:21:55;;;;;;;6.07;1.90;;;;;;;;;;6149729;23;20247;-86
2023/01/14 12:25:06;;;;;;;6.38;1.85;;;;;;;;;;6150468;23;20188;-87
2023/01/14 12:28:13;;;;;;;17.73;3.38;;;;;;;;;;6152723;23;20222;-88
2023/01/14 12:31:22;;;;;;;13.13;2.28;;;;;;;;;;6152713;23;20192;-89
2023/01/14 12:34:35;;;;;;;11.57;1.60;;;;;;;;;;6169749;23;20170;-88
2023/01/14 12:37:47;;;;;;;9.93;1.90;;;;;;;;;;6151588;23;20168;-87
2023/01/14 12:47:42;;;;;;;8.13;2.15;;;;;;;;;;6147551;23;20208;-88
2023/01/14 12:50:52;;;;;;;8.18;1.67;;;;;;;;;;6149873;23;20179;-87
2023/01/14 12:53:58;;;;;;;9.57;1.88;;;;;;;;;;6148775;23;20509;-85
2023/01/14 12:57:06;;;;;;;10.18;2.38;;;;;;;;;;6148635;23;20249;-86
2023/01/14 13:00:13;;;;;;;7.82;1.45;;;;;;;;;;6147596;23;20204;-86
2023/01/14 13:03:23;;;;;;;11.23;2.30;;;;;;;;;;6147810;23;20243;-88
2023/01/14 13:06:32;;;;;;;6.53;1.95;;;;;;;;;;6148484;23;20205;-87
2023/01/14 13:09:44;;;;;;;12.05;2.70;;;;;;;;;;6148042;23;20532;-87
2023/01/14 13:12:50;;;;;;;11.98;2.20;;;;;;;;;;6148066;23;20168;-88
2023/01/14 13:15:56;;;;;;;11.63;2.33;;;;;;;;;;6147443;23;20169;-88
2023/01/14 13:19:01;;;;;;;10.63;2.33;;;;;;;;;;6148553;23;20292;-88
2023/01/14 13:22:10;;;;;;;10.02;1.98;;;;;;;;;;6150056;23;20664;-89
2023/01/14 13:25:22;;;;;;;15.10;2.45;;;;;;;;;;6152059;23;20240;-88
2023/01/14 13:28:34;;;;;;;9.38;1.70;;;;;;;;;;6152674;23;20241;-90
2023/01/14 13:31:39;;;;;;;14.65;2.33;;;;;;;;;;6156859;23;20212;-88
2023/01/14 13:35:01;;;;;;;9.35;2.03;;;;;;;;;;6152307;23;20180;-88
2023/01/14 13:38:18;;;;;;;17.58;2.40;;;;;;;;;;6154087;23;20222;-90
2023/01/14 13:41:50;;;;;;;12.65;2.42;;;;;;;;;;6153909;23;20175;-90
2023/01/14 13:44:56;;;;;;;10.70;1.92;;;;;;;;;;6125231;23;20184;-90
2023/01/14 13:48:14;;;;;;;10.73;2.08;;;;;;;;;;6152663;23;20200;-88
2023/01/14 13:51:20;;;;;;;14.35;2.28;;;;;;;;;;6151611;23;20172;-88
2023/01/14 13:54:28;;;;;;;14.73;2.08;;;;;;;;;;6153220;23;20160;-90
2023/01/14 13:57:36;;;;;;;9.50;2.33;;;;;;;;;;6153680;23;20236;-89
2023/01/14 14:00:46;;;;;;;12.63;1.90;;;;;;;;;;6155938;23;20152;-93
2023/01/14 14:03:51;;;;;;;12.98;2.15;;;;;;;;;;6153477;23;20200;-90
2023/01/14 14:06:56;;;;;;;7.78;1.85;;;;;;;;;;6151565;23;20173;-87
2023/01/14 14:10:07;;;;;;;8.10;1.60;;;;;;;;;;6153133;23;20256;-90
2023/01/14 14:16:39;;;;;;;14.52;2.47;;;;;;;;;;6153086;23;20164;-89
2023/01/14 14:19:46;;;;;;;9.65;1.90;;;;;;;;;;6151882;23;20500;-90
2023/01/14 14:22:54;;;;;;;10.60;2.15;;;;;;;;;;6155662;23;20195;-91
2023/01/14 14:26:04;;;;;;;16.05;7.13;;;;;;;;;;6154210;23;20196;-89
2023/01/14 14:29:13;;;;;;;6.65;1.90;;;;;;;;;;6153979;23;20167;-89
2023/01/14 14:32:21;;;;;;;16.48;2.53;;;;;;;;;;6141594;23;20213;-89
2023/01/14 14:35:26;;;;;;;13.23;2.03;;;;;;;;;;6140061;23;20174;-89
2023/01/14 14:38:36;;;;;;;10.73;1.77;;;;;;;;;;6141337;23;20225;-90
2023/01/14 14:41:47;;;;;;;18.98;2.53;;;;;;;;;;6140416;23;20196;-90
2023/01/14 14:44:54;;;;;;;14.00;2.22;;;;;;;;;;6143693;23;20153;-88
2023/01/14 14:48:00;;;;;;;15.57;2.33;;;;;;;;;;6142709;23;20184;-90
2023/01/14 14:51:25;;;;;;;17.52;2.85;;;;;;;;;;6140561;23;20491;-89
2023/01/14 14:54:31;;;;;;;23.20;3.75;;;;;;;;;;6142903;23;20613;-91
2023/01/14 14:57:39;;;;;;;18.33;4.13;;;;;;;;;;6142959;23;20223;-89
2023/01/14 15:00:47;;;;;;;16.27;4.57;;;;;;;;;;6142492;23;20229;-91
2023/01/14 15:03:54;;;;;;;17.48;5.20;;;;;;;;;;6124503;23;20181;-89
2023/01/14 15:07:02;;;;;;;14.18;4.75;;;;;;;;;;6144943;23;20164;-92
2023/01/14 15:10:08;;;;;;;17.60;5.65;;;;;;;;;;6143513;23;20173;-91
2023/01/14 15:13:19;;;;;;;29.83;6.07;;;;;;;;;;6144868;23;20157;-92
2023/01/14 15:16:29;;;;;;;15.95;3.38;;;;;;;;;;6143549;23;20262;-89
2023/01/14 15:19:35;;;;;;;16.85;3.30;;;;;;;;;;6143149;23;20177;-89
2023/01/14 15:22:41;;;;;;;17.08;5.05;;;;;;;;;;6126629;23;20200;-91
2023/01/14 15:25:47;;;;;;;16.60;5.10;;;;;;;;;;6125452;23;20173;-92
2023/01/14 15:28:54;;;;;;;15.60;4.13;;;;;;;;;;6142851;23;20181;-90
2023/01/14 15:32:14;;;;;;;17.75;5.82;;;;;;;;;;6141375;23;20173;-91
2023/01/14 15:35:21;;;;;;;18.27;4.25;;;;;;;;;;6123528;23;20172;-90
2023/01/14 15:38:32;;;;;;;13.98;3.67;;;;;;;;;;6141669;23;20165;-90
2023/01/14 15:41:40;;;;;;;14.35;3.47;;;;;;;;;;6123051;23;20193;-90
2023/01/14 15:44:48;;;;;;;14.55;2.78;;;;;;;;;;6140656;23;20160;-92
2023/01/14 15:47:58;;;;;;;14.50;3.60;;;;;;;;;;6141419;23;20177;-89
2023/01/14 15:51:04;;;;;;;14.98;3.40;;;;;;;;;;6125573;23;20209;-90
2023/01/14 15:54:23;;;;;;;12.57;3.22;;;;;;;;;;6145012;23;20238;-92
2023/01/14 15:57:29;;;;;;;17.98;4.75;;;;;;;;;;6143500;23;20222;-91
2023/01/14 16:00:35;;;;;;;17.98;5.28;;;;;;;;;;6143568;23;20176;-91
2023/01/14 16:07:09;;;;;;;14.88;4.57;;;;;;;;;;6125194;23;20196;-92
2023/01/14 16:10:17;;;;;;;15.60;3.95;;;;;;;;;;6125324;23;20173;-90
2023/01/14 16:13:23;;;;;;;13.80;4.47;;;;;;;;;;6143141;23;20217;-92
2023/01/14 16:16:30;;;;;;;35.13;12.13;;;;;;;;;;6143743;23;20186;-90
2023/01/14 16:19:37;;;;;;;14.18;4.30;;;;;;;;;;6146027;23;20209;-90
2023/01/14 16:22:42;;;;;;;16.85;4.88;;;;;;;;;;6146519;23;20201;-90
2023/01/14 16:25:47;;;;;;;21.13;5.65;;;;;;;;;;6145205;23;20194;-92
2023/01/14 16:28:53;;;;;;;24.10;5.68;;;;;;;;;;6145246;23;20161;-92
2023/01/14 16:32:00;;;;;;;18.90;6.47;;;;;;;;;;6147097;23;20601;-90
2023/01/14 16:35:06;;;;;;;23.60;5.85;;;;;;;;;;6145912;23;20620;-91
2023/01/14 16:38:12;;;;;;;26.35;7.88;;;;;;;;;;6145686;23;20213;-88
2023/01/14 16:41:17;;;;;;;22.88;6.68;;;;;;;;;;6144935;23;20177;-92
2023/01/14 16:44:22;;;;;;;24.75;7.15;;;;;;;;;;6145798;23;20218;-91
2023/01/14 16:47:29;;;;;;;24.98;6.15;;;;;;;;;;6145639;23;20172;-90
2023/01/14 16:50:34;;;;;;;19.58;5.50;;;;;;;;;;6145235;23;20173;-89
2023/01/14 16:53:40;;;;;;;18.20;5.05;;;;;;;;;;6145002;23;20173;-90
2023/01/14 16:56:46;;;;;;;30.92;5.75;;;;;;;;;;6128351;23;20157;-90
2023/01/14 16:59:52;;;;;;;17.35;5.47;;;;;;;;;;6145669;23;20217;-89
2023/01/14 17:02:59;;;;;;;16.38;5.60;;;;;;;;;;6127731;23;20196;-91
2023/01/14 17:06:04;;;;;;;21.97;5.53;;;;;;;;;;6143751;23;20174;-90
2023/01/14 17:09:11;;;;;;;18.00;5.10;;;;;;;;;;6143423;23;20161;-94
2023/01/14 17:15:39;;;;;;;19.30;5.28;;;;;;;;;;6143517;23;20235;-90
2023/01/14 17:18:46;;;;;;;17.40;5.70;;;;;;;;;;6144731;23;20165;-88
2023/01/14 17:21:51;;;;;;;20.73;6.30;;;;;;;;;;6144977;23;20174;-88
2023/01/14 17:24:56;;;;;;;22.98;9.23;;;;;;;;;;6144438;23;20214;-90
2023/01/14 17:28:03;;;;;;;23.17;8.80;;;;;;;;;;6143772;23;20527;-90
2023/01/14 17:31:10;;;;;;;19.67;6.60;;;;;;;;;;6156420;23;20188;-88
2023/01/14 17:34:21;;;;;;;17.10;6.10;;;;;;;;;;6156277;23;20224;-91
2023/01/14 17:37:28;;;;;;;22.52;7.72;;;;;;;;;;6155446;23;20212;-88
2023/01/14 17:40:35;;;;;;;17.98;6.03;;;;;;;;;;6154423;23;20176;-90
2023/01/14 17:43:40;;;;;;;24.30;5.03;;;;;;;;;;6156207;23;20199;-92
2023/01/14 17:46:48;;;;;;;13.38;4.00;;;;;;;;;;6155801;23;20176;-91
2023/01/14 17:49:55;;;;;;;12.20;4.55;;;;;;;;;;6156806;23;20555;-92
2023/01/14 17:53:00;;;;;;;13.70;3.90;;;;;;;;;;6153968;23;20277;-90
2023/01/14 17:56:06;;;;;;;18.60;6.60;;;;;;;;;;6155466;23;20209;-91
2023/01/14 17:59:13;;;;;;;19.60;6.23;;;;;;;;;;6156035;23;20247;-90
2023/01/14 18:02:20;;;;;;;19.15;6.47;;;;;;;;;;6155623;23;20268;-90
2023/01/14 18:05:27;;;;;;;16.58;5.63;;;;;;;;;;6156415;23;20181;-92
2023/01/14 18:08:34;;;;;;;15.27;4.47;;;;;;;;;;6156526;23;20156;-91
2023/01/14 18:11:40;;;;;;;11.65;5.07;;;;;;;;;;6156973;23;20217;-91
2023/01/14 18:14:46;;;;;;;17.35;4.60;;;;;;;;;;6157529;23;20185;-90
2023/01/14 18:17:51;;;;;;;21.92;6.03;;;;;;;;;;6155487;23;20171;-91
2023/01/14 18:21:02;;;;;;;21.00;8.43;;;;;;;;;;6158047;23;20173;-92
2023/01/14 18:24:09;;;;;;;18.03;6.33;;;;;;;;;;6155767;23;20195;-90
2023/01/14 18:27:14;;;;;;;17.52;6.47;;;;;;;;;;6155268;23;20189;-92
2023/01/14 18:30:20;;;;;;;16.35;5.65;;;;;;;;;;6155849;23;20195;-91
2023/01/14 18:33:25;;;;;;;17.00;6.03;;;;;;;;;;6156628;23;20200;-93
2023/01/14 18:36:35;;;;;;;31.92;10.38;;;;;;;;;;6155236;23;20172;-91
2023/01/14 18:40:10;;;;;;;20.92;7.32;;;;;;;;;;6154717;23;20180;-91
2023/01/14 18:43:15;;;;;;;19.38;6.50;;;;;;;;;;6154110;23;20200;-91
2023/01/14 18:46:22;;;;;;;16.65;6.82;;;;;;;;;;6158434;23;20164;-90
2023/01/14 18:49:29;;;;;;;20.50;6.50;;;;;;;;;;6158239;23;20172;-88
2023/01/14 18:52:37;;;;;;;25.05;6.95;;;;;;;;;;6158888;23;20177;-90
2023/01/14 18:55:43;;;;;;;22.60;7.03;;;;;;;;;;6141773;23;20221;-90
2023/01/14 18:58:49;;;;;;;23.50;7.30;;;;;;;;;;6158041;23;20222;-92
2023/01/14 19:01:57;;;;;;;33.85;12.00;;;;;;;;;;6157480;23;20233;-90
2023/01/14 19:05:03;;;;;;;18.00;7.90;;;;;;;;;;6157895;23;20179;-90
2023/01/14 19:08:10;;;;;;;20.58;7.32;;;;;;;;;;6156288;23;20217;-91
2023/01/14 19:14:40;;;;;;;18.95;6.97;;;;;;;;;;6149896;23;20204;-90
2023/01/14 19:17:45;;;;;;;27.38;7.55;;;;;;;;;;6159093;23;20173;-91
2023/01/14 19:21:00;;;;;;;19.87;7.00;;;;;;;;;;6157885;23;20172;-92
2023/01/14 19:24:11;;;;;;;17.90;6.75;;;;;;;;;;6155819;23;20203;-93
2023/01/14 19:27:17;;;;;;;21.00;7.15;;;;;;;;;;6155733;23;20459;-92
2023/01/14 19:30:23;;;;;;;30.48;11.10;;;;;;;;;;6156718;23;20195;-92